sensor_id;sensor_type;location;lat;lon;timestamp;P1;durP1;ratioP1;P2;durP2;ratioP2
77324;SDS011;66387;53.440;10.390;2023-04-24T00:02:16;8.23;;;4.73;;
77324;SDS011;66387;53.440;10.390;2023-04-24T00:04:41;6.75;;;5.13;;
77324;SDS011;66387;53.440;10.390;2023-04-24T00:07:09;6.22;;;4.82;;
77324;SDS011;66387;53.440;10.390;2023-04-24T00:09:35;6.22;;;4.70;;
77324;SDS011;66387;53.440;10.390;2023-04-24T00:12:00;7.57;;;4.90;;
77324;SDS011;66387;53.440;10.390;2023-04-24T00:14:28;5.97;;;4.75;;
77324;SDS011;66387;53.440;10.390;2023-04-24T00:16:53;5.33;;;4.27;;
77324;SDS011;66387;53.440;10.390;2023-04-24T00:19:19;5.07;;;4.20;;
77324;SDS011;66387;53.440;10.390;2023-04-24T00:21:46;7.03;;;4.90;;
77324;SDS011;66387;53.440;10.390;2023-04-24T00:24:11;5.30;;;4.65;;
77324;SDS011;66387;53.440;10.390;2023-04-24T00:26:36;5.57;;;4.20;;
77324;SDS011;66387;53.440;10.390;2023-04-24T00:29:02;4.90;;;3.77;;
77324;SDS011;66387;53.440;10.390;2023-04-24T00:31:27;5.43;;;4.50;;
77324;SDS011;66387;53.440;10.390;2023-04-24T00:33:52;5.07;;;3.80;;
77324;SDS011;66387;53.440;10.390;2023-04-24T00:36:18;7.33;;;4.37;;
77324;SDS011;66387;53.440;10.390;2023-04-24T00:38:45;6.28;;;4.88;;
77324;SDS011;66387;53.440;10.390;2023-04-24T00:41:10;5.78;;;4.32;;
77324;SDS011;66387;53.440;10.390;2023-04-24T00:43:36;5.85;;;4.00;;
77324;SDS011;66387;53.440;10.390;2023-04-24T00:46:01;6.13;;;4.90;;
77324;SDS011;66387;53.440;10.390;2023-04-24T00:48:27;7.63;;;4.18;;
77324;SDS011;66387;53.440;10.390;2023-04-24T00:50:52;6.28;;;4.32;;
77324;SDS011;66387;53.440;10.390;2023-04-24T00:53:18;4.20;;;3.58;;
77324;SDS011;66387;53.440;10.390;2023-04-24T00:55:43;5.95;;;4.07;;
77324;SDS011;66387;53.440;10.390;2023-04-24T00:58:09;6.30;;;4.95;;
77324;SDS011;66387;53.440;10.390;2023-04-24T01:00:34;5.35;;;4.43;;
77324;SDS011;66387;53.440;10.390;2023-04-24T01:03:00;5.20;;;3.95;;
77324;SDS011;66387;53.440;10.390;2023-04-24T01:05:29;4.80;;;4.30;;
77324;SDS011;66387;53.440;10.390;2023-04-24T01:07:54;6.72;;;4.13;;
77324;SDS011;66387;53.440;10.390;2023-04-24T01:10:20;4.72;;;3.17;;
77324;SDS011;66387;53.440;10.390;2023-04-24T01:12:46;4.47;;;3.33;;
77324;SDS011;66387;53.440;10.390;2023-04-24T01:15:11;4.22;;;3.22;;
77324;SDS011;66387;53.440;10.390;2023-04-24T01:17:36;4.45;;;3.20;;
77324;SDS011;66387;53.440;10.390;2023-04-24T01:20:03;5.43;;;3.28;;
77324;SDS011;66387;53.440;10.390;2023-04-24T01:22:30;4.57;;;3.22;;
77324;SDS011;66387;53.440;10.390;2023-04-24T01:24:55;5.65;;;3.40;;
77324;SDS011;66387;53.440;10.390;2023-04-24T01:27:21;3.47;;;3.10;;
77324;SDS011;66387;53.440;10.390;2023-04-24T01:29:46;3.80;;;3.20;;
77324;SDS011;66387;53.440;10.390;2023-04-24T01:32:14;2.97;;;2.63;;
77324;SDS011;66387;53.440;10.390;2023-04-24T01:34:40;3.55;;;3.05;;
77324;SDS011;66387;53.440;10.390;2023-04-24T01:37:06;3.88;;;2.90;;
77324;SDS011;66387;53.440;10.390;2023-04-24T01:39:31;4.45;;;3.17;;
77324;SDS011;66387;53.440;10.390;2023-04-24T01:41:58;3.83;;;3.35;;
77324;SDS011;66387;53.440;10.390;2023-04-24T01:44:24;3.75;;;2.75;;
77324;SDS011;66387;53.440;10.390;2023-04-24T01:46:50;4.18;;;2.88;;
77324;SDS011;66387;53.440;10.390;2023-04-24T01:51:43;3.57;;;2.83;;
77324;SDS011;66387;53.440;10.390;2023-04-24T01:54:09;3.78;;;3.15;;
77324;SDS011;66387;53.440;10.390;2023-04-24T01:56:34;3.40;;;3.03;;
77324;SDS011;66387;53.440;10.390;2023-04-24T01:59:03;5.18;;;2.83;;
77324;SDS011;66387;53.440;10.390;2023-04-24T02:01:33;3.15;;;2.83;;
77324;SDS011;66387;53.440;10.390;2023-04-24T02:04:00;4.00;;;3.28;;
77324;SDS011;66387;53.440;10.390;2023-04-24T02:06:26;4.33;;;3.43;;
77324;SDS011;66387;53.440;10.390;2023-04-24T02:08:51;3.57;;;2.70;;
77324;SDS011;66387;53.440;10.390;2023-04-24T02:11:16;2.80;;;2.10;;
77324;SDS011;66387;53.440;10.390;2023-04-24T02:13:41;3.90;;;2.57;;
77324;SDS011;66387;53.440;10.390;2023-04-24T02:16:07;4.13;;;2.70;;
77324;SDS011;66387;53.440;10.390;2023-04-24T02:18:32;2.90;;;2.30;;
77324;SDS011;66387;53.440;10.390;2023-04-24T02:20:57;4.07;;;2.83;;
77324;SDS011;66387;53.440;10.390;2023-04-24T02:23:22;4.87;;;2.30;;
77324;SDS011;66387;53.440;10.390;2023-04-24T02:25:48;3.13;;;2.47;;
77324;SDS011;66387;53.440;10.390;2023-04-24T02:28:13;4.00;;;2.20;;
77324;SDS011;66387;53.440;10.390;2023-04-24T02:30:38;4.50;;;1.97;;
77324;SDS011;66387;53.440;10.390;2023-04-24T02:33:04;2.97;;;2.30;;
77324;SDS011;66387;53.440;10.390;2023-04-24T02:35:29;2.87;;;2.00;;
77324;SDS011;66387;53.440;10.390;2023-04-24T02:37:54;2.75;;;2.03;;
77324;SDS011;66387;53.440;10.390;2023-04-24T02:40:20;2.80;;;2.00;;
77324;SDS011;66387;53.440;10.390;2023-04-24T02:42:45;2.17;;;1.77;;
77324;SDS011;66387;53.440;10.390;2023-04-24T02:45:10;2.00;;;1.83;;
77324;SDS011;66387;53.440;10.390;2023-04-24T02:47:35;2.57;;;2.00;;
77324;SDS011;66387;53.440;10.390;2023-04-24T02:50:01;4.13;;;2.47;;
77324;SDS011;66387;53.440;10.390;2023-04-24T02:52:28;2.17;;;1.85;;
77324;SDS011;66387;53.440;10.390;2023-04-24T02:54:53;2.27;;;1.70;;
77324;SDS011;66387;53.440;10.390;2023-04-24T02:57:19;2.33;;;1.80;;
77324;SDS011;66387;53.440;10.390;2023-04-24T02:59:44;3.20;;;1.88;;
77324;SDS011;66387;53.440;10.390;2023-04-24T03:02:09;3.30;;;2.20;;
77324;SDS011;66387;53.440;10.390;2023-04-24T03:04:35;2.63;;;2.20;;
77324;SDS011;66387;53.440;10.390;2023-04-24T03:07:00;1.90;;;1.70;;
77324;SDS011;66387;53.440;10.390;2023-04-24T03:09:26;2.95;;;2.05;;
77324;SDS011;66387;53.440;10.390;2023-04-24T03:11:51;2.07;;;1.47;;
77324;SDS011;66387;53.440;10.390;2023-04-24T03:14:16;3.20;;;1.83;;
77324;SDS011;66387;53.440;10.390;2023-04-24T03:16:42;3.13;;;2.07;;
77324;SDS011;66387;53.440;10.390;2023-04-24T03:19:07;2.78;;;1.90;;
77324;SDS011;66387;53.440;10.390;2023-04-24T03:21:32;2.90;;;1.90;;
77324;SDS011;66387;53.440;10.390;2023-04-24T03:23:58;2.00;;;1.70;;
77324;SDS011;66387;53.440;10.390;2023-04-24T03:26:23;2.03;;;1.77;;
77324;SDS011;66387;53.440;10.390;2023-04-24T03:28:49;2.38;;;1.85;;
77324;SDS011;66387;53.440;10.390;2023-04-24T03:31:15;2.25;;;1.75;;
77324;SDS011;66387;53.440;10.390;2023-04-24T03:33:41;1.85;;;1.60;;
77324;SDS011;66387;53.440;10.390;2023-04-24T03:36:06;1.98;;;1.63;;
77324;SDS011;66387;53.440;10.390;2023-04-24T03:38:32;2.30;;;1.88;;
77324;SDS011;66387;53.440;10.390;2023-04-24T03:40:57;2.07;;;1.53;;
77324;SDS011;66387;53.440;10.390;2023-04-24T03:43:23;2.80;;;1.65;;
77324;SDS011;66387;53.440;10.390;2023-04-24T03:45:48;2.43;;;1.87;;
77324;SDS011;66387;53.440;10.390;2023-04-24T03:48:13;2.83;;;1.65;;
77324;SDS011;66387;53.440;10.390;2023-04-24T03:50:38;2.27;;;1.50;;
77324;SDS011;66387;53.440;10.390;2023-04-24T03:53:04;2.15;;;1.50;;
77324;SDS011;66387;53.440;10.390;2023-04-24T03:55:29;3.53;;;1.80;;
77324;SDS011;66387;53.440;10.390;2023-04-24T03:57:54;3.20;;;1.90;;
77324;SDS011;66387;53.440;10.390;2023-04-24T04:00:20;2.97;;;1.50;;
77324;SDS011;66387;53.440;10.390;2023-04-24T04:02:45;1.75;;;1.50;;
77324;SDS011;66387;53.440;10.390;2023-04-24T04:05:11;3.50;;;1.80;;
77324;SDS011;66387;53.440;10.390;2023-04-24T04:07:36;2.10;;;1.90;;
77324;SDS011;66387;53.440;10.390;2023-04-24T04:10:01;1.40;;;1.20;;
77324;SDS011;66387;53.440;10.390;2023-04-24T04:12:27;1.52;;;1.27;;
77324;SDS011;66387;53.440;10.390;2023-04-24T04:14:52;2.87;;;2.03;;
77324;SDS011;66387;53.440;10.390;2023-04-24T04:17:17;1.97;;;1.50;;
77324;SDS011;66387;53.440;10.390;2023-04-24T04:19:43;2.73;;;1.73;;
77324;SDS011;66387;53.440;10.390;2023-04-24T04:22:08;2.30;;;1.67;;
77324;SDS011;66387;53.440;10.390;2023-04-24T04:24:33;1.70;;;1.47;;
77324;SDS011;66387;53.440;10.390;2023-04-24T04:27:02;1.48;;;1.30;;
77324;SDS011;66387;53.440;10.390;2023-04-24T04:29:29;2.95;;;1.80;;
77324;SDS011;66387;53.440;10.390;2023-04-24T04:31:56;1.70;;;1.23;;
77324;SDS011;66387;53.440;10.390;2023-04-24T04:34:21;1.67;;;1.47;;
77324;SDS011;66387;53.440;10.390;2023-04-24T04:36:47;2.53;;;1.63;;
77324;SDS011;66387;53.440;10.390;2023-04-24T04:39:12;2.50;;;1.43;;
77324;SDS011;66387;53.440;10.390;2023-04-24T04:41:39;1.73;;;1.40;;
77324;SDS011;66387;53.440;10.390;2023-04-24T04:44:05;1.33;;;1.23;;
77324;SDS011;66387;53.440;10.390;2023-04-24T04:46:31;1.33;;;1.23;;
77324;SDS011;66387;53.440;10.390;2023-04-24T04:49:02;1.20;;;1.00;;
77324;SDS011;66387;53.440;10.390;2023-04-24T04:51:27;1.60;;;1.17;;
77324;SDS011;66387;53.440;10.390;2023-04-24T04:53:53;1.42;;;1.23;;
77324;SDS011;66387;53.440;10.390;2023-04-24T04:56:18;1.40;;;1.30;;
77324;SDS011;66387;53.440;10.390;2023-04-24T04:58:44;2.15;;;1.20;;
77324;SDS011;66387;53.440;10.390;2023-04-24T05:01:09;1.55;;;1.20;;
77324;SDS011;66387;53.440;10.390;2023-04-24T05:03:34;1.37;;;1.23;;
77324;SDS011;66387;53.440;10.390;2023-04-24T05:06:00;2.17;;;1.40;;
77324;SDS011;66387;53.440;10.390;2023-04-24T05:08:26;1.48;;;1.15;;
77324;SDS011;66387;53.440;10.390;2023-04-24T05:10:52;1.70;;;1.00;;
77324;SDS011;66387;53.440;10.390;2023-04-24T05:13:17;1.10;;;0.90;;
77324;SDS011;66387;53.440;10.390;2023-04-24T05:15:42;1.37;;;1.10;;
77324;SDS011;66387;53.440;10.390;2023-04-24T05:18:08;1.70;;;1.30;;
77324;SDS011;66387;53.440;10.390;2023-04-24T05:20:33;1.23;;;1.00;;
77324;SDS011;66387;53.440;10.390;2023-04-24T05:22:58;1.83;;;1.00;;
77324;SDS011;66387;53.440;10.390;2023-04-24T05:25:23;1.50;;;1.10;;
77324;SDS011;66387;53.440;10.390;2023-04-24T05:27:49;2.23;;;1.70;;
77324;SDS011;66387;53.440;10.390;2023-04-24T05:30:14;1.03;;;0.93;;
77324;SDS011;66387;53.440;10.390;2023-04-24T05:32:39;1.40;;;1.20;;
77324;SDS011;66387;53.440;10.390;2023-04-24T05:35:04;1.73;;;1.30;;
77324;SDS011;66387;53.440;10.390;2023-04-24T05:37:30;1.77;;;0.93;;
77324;SDS011;66387;53.440;10.390;2023-04-24T05:39:55;1.10;;;1.00;;
77324;SDS011;66387;53.440;10.390;2023-04-24T05:42:21;1.33;;;1.03;;
77324;SDS011;66387;53.440;10.390;2023-04-24T05:44:46;1.30;;;1.20;;
77324;SDS011;66387;53.440;10.390;2023-04-24T05:47:11;1.30;;;1.00;;
77324;SDS011;66387;53.440;10.390;2023-04-24T05:49:36;1.50;;;1.17;;
77324;SDS011;66387;53.440;10.390;2023-04-24T05:52:02;2.00;;;1.23;;
77324;SDS011;66387;53.440;10.390;2023-04-24T05:54:29;1.42;;;1.10;;
77324;SDS011;66387;53.440;10.390;2023-04-24T05:56:54;1.80;;;1.00;;
77324;SDS011;66387;53.440;10.390;2023-04-24T05:59:20;1.67;;;1.00;;
77324;SDS011;66387;53.440;10.390;2023-04-24T06:01:46;1.58;;;1.42;;
77324;SDS011;66387;53.440;10.390;2023-04-24T06:04:11;1.50;;;1.40;;
77324;SDS011;66387;53.440;10.390;2023-04-24T06:06:38;2.08;;;1.13;;
77324;SDS011;66387;53.440;10.390;2023-04-24T06:09:03;1.90;;;1.07;;
77324;SDS011;66387;53.440;10.390;2023-04-24T06:11:29;1.90;;;1.45;;
77324;SDS011;66387;53.440;10.390;2023-04-24T06:13:54;1.80;;;1.30;;
77324;SDS011;66387;53.440;10.390;2023-04-24T06:16:19;2.33;;;1.50;;
77324;SDS011;66387;53.440;10.390;2023-04-24T06:18:45;1.77;;;1.40;;
77324;SDS011;66387;53.440;10.390;2023-04-24T06:21:12;1.58;;;1.17;;
77324;SDS011;66387;53.440;10.390;2023-04-24T06:23:37;2.53;;;2.00;;
77324;SDS011;66387;53.440;10.390;2023-04-24T06:26:02;2.93;;;1.67;;
77324;SDS011;66387;53.440;10.390;2023-04-24T06:28:27;2.43;;;1.70;;
77324;SDS011;66387;53.440;10.390;2023-04-24T06:30:54;2.50;;;1.40;;
77324;SDS011;66387;53.440;10.390;2023-04-24T06:33:19;1.73;;;1.52;;
77324;SDS011;66387;53.440;10.390;2023-04-24T06:35:44;2.83;;;1.50;;
77324;SDS011;66387;53.440;10.390;2023-04-24T06:38:10;2.87;;;1.40;;
77324;SDS011;66387;53.440;10.390;2023-04-24T06:40:35;2.07;;;1.37;;
77324;SDS011;66387;53.440;10.390;2023-04-24T06:43:00;2.67;;;1.87;;
77324;SDS011;66387;53.440;10.390;2023-04-24T06:45:27;3.17;;;1.67;;
77324;SDS011;66387;53.440;10.390;2023-04-24T06:47:54;1.80;;;1.65;;
77324;SDS011;66387;53.440;10.390;2023-04-24T06:50:19;2.17;;;1.63;;
77324;SDS011;66387;53.440;10.390;2023-04-24T06:52:44;2.88;;;1.70;;
77324;SDS011;66387;53.440;10.390;2023-04-24T06:55:10;3.00;;;1.83;;
77324;SDS011;66387;53.440;10.390;2023-04-24T06:57:36;2.33;;;2.05;;
77324;SDS011;66387;53.440;10.390;2023-04-24T07:00:01;1.95;;;1.33;;
77324;SDS011;66387;53.440;10.390;2023-04-24T07:02:28;1.80;;;1.50;;
77324;SDS011;66387;53.440;10.390;2023-04-24T07:04:53;3.20;;;1.70;;
77324;SDS011;66387;53.440;10.390;2023-04-24T07:07:19;2.63;;;1.80;;
77324;SDS011;66387;53.440;10.390;2023-04-24T07:09:44;2.97;;;1.80;;
77324;SDS011;66387;53.440;10.390;2023-04-24T07:12:10;1.85;;;1.50;;
77324;SDS011;66387;53.440;10.390;2023-04-24T07:14:36;2.55;;;1.80;;
77324;SDS011;66387;53.440;10.390;2023-04-24T07:17:03;2.90;;;2.15;;
77324;SDS011;66387;53.440;10.390;2023-04-24T07:19:28;2.08;;;1.70;;
77324;SDS011;66387;53.440;10.390;2023-04-24T07:21:54;2.97;;;2.40;;
77324;SDS011;66387;53.440;10.390;2023-04-24T07:24:20;2.40;;;1.70;;
77324;SDS011;66387;53.440;10.390;2023-04-24T07:26:45;3.05;;;2.20;;
77324;SDS011;66387;53.440;10.390;2023-04-24T07:29:11;2.83;;;1.60;;
77324;SDS011;66387;53.440;10.390;2023-04-24T07:31:38;2.80;;;1.25;;
77324;SDS011;66387;53.440;10.390;2023-04-24T07:34:03;2.20;;;1.70;;
77324;SDS011;66387;53.440;10.390;2023-04-24T07:36:29;2.23;;;1.43;;
77324;SDS011;66387;53.440;10.390;2023-04-24T07:38:54;1.80;;;1.37;;
77324;SDS011;66387;53.440;10.390;2023-04-24T07:41:20;2.03;;;1.42;;
77324;SDS011;66387;53.440;10.390;2023-04-24T07:43:46;2.95;;;1.63;;
77324;SDS011;66387;53.440;10.390;2023-04-24T07:46:11;2.20;;;1.33;;
77324;SDS011;66387;53.440;10.390;2023-04-24T07:48:36;3.87;;;1.93;;
77324;SDS011;66387;53.440;10.390;2023-04-24T07:51:02;2.33;;;1.60;;
77324;SDS011;66387;53.440;10.390;2023-04-24T07:53:27;2.25;;;1.48;;
77324;SDS011;66387;53.440;10.390;2023-04-24T07:55:53;2.40;;;1.40;;
77324;SDS011;66387;53.440;10.390;2023-04-24T07:58:20;2.60;;;1.55;;
77324;SDS011;66387;53.440;10.390;2023-04-24T08:00:45;1.40;;;1.30;;
77324;SDS011;66387;53.440;10.390;2023-04-24T08:03:11;1.60;;;1.30;;
77324;SDS011;66387;53.440;10.390;2023-04-24T08:05:37;1.60;;;1.25;;
77324;SDS011;66387;53.440;10.390;2023-04-24T08:08:02;2.47;;;1.55;;
77324;SDS011;66387;53.440;10.390;2023-04-24T08:10:28;1.80;;;1.23;;
77324;SDS011;66387;53.440;10.390;2023-04-24T08:12:53;1.87;;;1.17;;
77324;SDS011;66387;53.440;10.390;2023-04-24T08:15:20;1.70;;;1.30;;
77324;SDS011;66387;53.440;10.390;2023-04-24T08:17:45;1.93;;;1.27;;
77324;SDS011;66387;53.440;10.390;2023-04-24T08:20:10;2.00;;;1.40;;
77324;SDS011;66387;53.440;10.390;2023-04-24T08:22:42;2.00;;;1.27;;
77324;SDS011;66387;53.440;10.390;2023-04-24T08:25:08;2.22;;;1.45;;
77324;SDS011;66387;53.440;10.390;2023-04-24T08:27:35;1.90;;;1.30;;
77324;SDS011;66387;53.440;10.390;2023-04-24T08:30:01;2.13;;;1.55;;
77324;SDS011;66387;53.440;10.390;2023-04-24T08:32:27;2.00;;;1.70;;
77324;SDS011;66387;53.440;10.390;2023-04-24T08:34:54;2.72;;;1.38;;
77324;SDS011;66387;53.440;10.390;2023-04-24T08:37:22;2.33;;;1.77;;
77324;SDS011;66387;53.440;10.390;2023-04-24T08:39:48;2.50;;;1.90;;
77324;SDS011;66387;53.440;10.390;2023-04-24T08:42:14;2.42;;;1.80;;
77324;SDS011;66387;53.440;10.390;2023-04-24T08:44:41;2.22;;;1.70;;
77324;SDS011;66387;53.440;10.390;2023-04-24T08:47:07;2.35;;;1.85;;
77324;SDS011;66387;53.440;10.390;2023-04-24T08:49:32;2.60;;;1.88;;
77324;SDS011;66387;53.440;10.390;2023-04-24T08:52:00;3.67;;;2.20;;
77324;SDS011;66387;53.440;10.390;2023-04-24T08:54:27;2.60;;;2.40;;
77324;SDS011;66387;53.440;10.390;2023-04-24T08:56:53;3.85;;;2.65;;
77324;SDS011;66387;53.440;10.390;2023-04-24T08:59:22;3.50;;;2.65;;
77324;SDS011;66387;53.440;10.390;2023-04-24T09:01:48;2.60;;;2.33;;
77324;SDS011;66387;53.440;10.390;2023-04-24T09:04:15;2.80;;;2.35;;
77324;SDS011;66387;53.440;10.390;2023-04-24T09:06:44;3.38;;;2.55;;
77324;SDS011;66387;53.440;10.390;2023-04-24T09:09:10;4.00;;;2.60;;
77324;SDS011;66387;53.440;10.390;2023-04-24T09:11:36;3.30;;;2.80;;
77324;SDS011;66387;53.440;10.390;2023-04-24T09:14:02;3.38;;;2.65;;
77324;SDS011;66387;53.440;10.390;2023-04-24T09:16:28;4.32;;;3.40;;
77324;SDS011;66387;53.440;10.390;2023-04-24T09:18:54;3.42;;;3.10;;
77324;SDS011;66387;53.440;10.390;2023-04-24T09:21:20;5.35;;;3.90;;
77324;SDS011;66387;53.440;10.390;2023-04-24T09:23:47;5.18;;;3.85;;
77324;SDS011;66387;53.440;10.390;2023-04-24T09:26:22;5.30;;;4.68;;
77324;SDS011;66387;53.440;10.390;2023-04-24T09:28:48;4.88;;;4.10;;
77324;SDS011;66387;53.440;10.390;2023-04-24T09:31:14;5.57;;;5.07;;
77324;SDS011;66387;53.440;10.390;2023-04-24T09:33:56;4.65;;;3.78;;
77324;SDS011;66387;53.440;10.390;2023-04-24T09:36:29;5.22;;;3.78;;
77324;SDS011;66387;53.440;10.390;2023-04-24T09:38:58;4.30;;;3.75;;
77324;SDS011;66387;53.440;10.390;2023-04-24T09:41:25;5.03;;;3.72;;
77324;SDS011;66387;53.440;10.390;2023-04-24T09:43:51;4.50;;;4.05;;
77324;SDS011;66387;53.440;10.390;2023-04-24T09:46:19;6.60;;;4.63;;
77324;SDS011;66387;53.440;10.390;2023-04-24T09:48:44;5.75;;;3.78;;
77324;SDS011;66387;53.440;10.390;2023-04-24T09:51:10;5.20;;;4.70;;
77324;SDS011;66387;53.440;10.390;2023-04-24T09:53:36;4.60;;;3.63;;
77324;SDS011;66387;53.440;10.390;2023-04-24T09:56:02;4.40;;;3.38;;
77324;SDS011;66387;53.440;10.390;2023-04-24T09:58:31;4.68;;;3.85;;
77324;SDS011;66387;53.440;10.390;2023-04-24T10:00:56;5.33;;;4.27;;
77324;SDS011;66387;53.440;10.390;2023-04-24T10:03:25;4.93;;;3.77;;
77324;SDS011;66387;53.440;10.390;2023-04-24T10:05:52;4.85;;;4.32;;
77324;SDS011;66387;53.440;10.390;2023-04-24T10:08:18;4.88;;;4.07;;
77324;SDS011;66387;53.440;10.390;2023-04-24T10:10:43;4.87;;;3.53;;
77324;SDS011;66387;53.440;10.390;2023-04-24T10:13:10;5.85;;;3.60;;
77324;SDS011;66387;53.440;10.390;2023-04-24T10:15:37;4.20;;;2.83;;
77324;SDS011;66387;53.440;10.390;2023-04-24T10:18:04;3.92;;;2.92;;
77324;SDS011;66387;53.440;10.390;2023-04-24T10:20:31;4.22;;;3.22;;
77324;SDS011;66387;53.440;10.390;2023-04-24T10:22:58;3.80;;;3.45;;
77324;SDS011;66387;53.440;10.390;2023-04-24T10:25:25;5.15;;;4.60;;
77324;SDS011;66387;53.440;10.390;2023-04-24T10:27:52;6.00;;;4.55;;
77324;SDS011;66387;53.440;10.390;2023-04-24T10:30:19;8.10;;;4.63;;
77324;SDS011;66387;53.440;10.390;2023-04-24T10:32:45;6.28;;;4.53;;
77324;SDS011;66387;53.440;10.390;2023-04-24T10:35:13;6.28;;;4.60;;
77324;SDS011;66387;53.440;10.390;2023-04-24T10:37:42;6.82;;;4.75;;
77324;SDS011;66387;53.440;10.390;2023-04-24T10:40:10;6.07;;;4.43;;
77324;SDS011;66387;53.440;10.390;2023-04-24T10:42:40;7.72;;;4.55;;
77324;SDS011;66387;53.440;10.390;2023-04-24T10:45:15;5.88;;;4.03;;
77324;SDS011;66387;53.440;10.390;2023-04-24T10:47:52;6.70;;;4.95;;
77324;SDS011;66387;53.440;10.390;2023-04-24T10:50:20;5.47;;;4.35;;
77324;SDS011;66387;53.440;10.390;2023-04-24T10:52:46;7.25;;;4.88;;
77324;SDS011;66387;53.440;10.390;2023-04-24T10:55:13;6.45;;;5.30;;
77324;SDS011;66387;53.440;10.390;2023-04-24T11:00:27;8.20;;;5.75;;
77324;SDS011;66387;53.440;10.390;2023-04-24T11:02:53;6.97;;;5.43;;
77324;SDS011;66387;53.440;10.390;2023-04-24T11:05:19;8.93;;;6.10;;
77324;SDS011;66387;53.440;10.390;2023-04-24T11:10:40;7.38;;;5.63;;
77324;SDS011;66387;53.440;10.390;2023-04-24T11:13:08;6.85;;;4.95;;
77324;SDS011;66387;53.440;10.390;2023-04-24T11:15:34;5.95;;;5.28;;
77324;SDS011;66387;53.440;10.390;2023-04-24T11:17:59;6.40;;;4.87;;
77324;SDS011;66387;53.440;10.390;2023-04-24T11:20:25;7.32;;;5.30;;
77324;SDS011;66387;53.440;10.390;2023-04-24T11:22:52;8.27;;;5.63;;
77324;SDS011;66387;53.440;10.390;2023-04-24T11:25:19;6.53;;;5.18;;
77324;SDS011;66387;53.440;10.390;2023-04-24T11:27:47;6.85;;;5.30;;
77324;SDS011;66387;53.440;10.390;2023-04-24T11:30:17;9.13;;;5.88;;
77324;SDS011;66387;53.440;10.390;2023-04-24T11:32:43;6.90;;;4.97;;
77324;SDS011;66387;53.440;10.390;2023-04-24T11:37:50;7.05;;;4.70;;
77324;SDS011;66387;53.440;10.390;2023-04-24T11:40:17;5.82;;;5.28;;
77324;SDS011;66387;53.440;10.390;2023-04-24T11:45:17;5.45;;;4.07;;
77324;SDS011;66387;53.440;10.390;2023-04-24T11:47:46;6.28;;;4.22;;
77324;SDS011;66387;53.440;10.390;2023-04-24T11:50:12;5.93;;;3.83;;
77324;SDS011;66387;53.440;10.390;2023-04-24T11:52:42;4.60;;;4.05;;
77324;SDS011;66387;53.440;10.390;2023-04-24T11:57:42;8.77;;;4.18;;
77324;SDS011;66387;53.440;10.390;2023-04-24T12:00:14;4.65;;;4.03;;
77324;SDS011;66387;53.440;10.390;2023-04-24T12:02:48;5.18;;;3.97;;
77324;SDS011;66387;53.440;10.390;2023-04-24T12:05:24;6.05;;;4.90;;
77324;SDS011;66387;53.440;10.390;2023-04-24T12:07:51;6.30;;;5.03;;
77324;SDS011;66387;53.440;10.390;2023-04-24T12:10:24;5.13;;;4.63;;
77324;SDS011;66387;53.440;10.390;2023-04-24T12:12:50;5.70;;;4.70;;
77324;SDS011;66387;53.440;10.390;2023-04-24T12:15:17;6.35;;;3.92;;
77324;SDS011;66387;53.440;10.390;2023-04-24T12:17:44;5.07;;;3.58;;
77324;SDS011;66387;53.440;10.390;2023-04-24T12:20:10;4.68;;;3.83;;
77324;SDS011;66387;53.440;10.390;2023-04-24T12:25:31;5.85;;;4.35;;
77324;SDS011;66387;53.440;10.390;2023-04-24T12:30:28;4.18;;;3.58;;
77324;SDS011;66387;53.440;10.390;2023-04-24T12:32:56;3.95;;;3.35;;
77324;SDS011;66387;53.440;10.390;2023-04-24T12:35:23;4.00;;;3.30;;
77324;SDS011;66387;53.440;10.390;2023-04-24T12:37:49;4.85;;;3.45;;
77324;SDS011;66387;53.440;10.390;2023-04-24T12:40:15;4.55;;;4.13;;
77324;SDS011;66387;53.440;10.390;2023-04-24T12:42:42;4.60;;;3.35;;
77324;SDS011;66387;53.440;10.390;2023-04-24T12:45:10;6.53;;;4.38;;
77324;SDS011;66387;53.440;10.390;2023-04-24T12:47:37;4.30;;;3.72;;
77324;SDS011;66387;53.440;10.390;2023-04-24T12:50:03;5.82;;;3.95;;
77324;SDS011;66387;53.440;10.390;2023-04-24T12:52:30;5.00;;;3.72;;
77324;SDS011;66387;53.440;10.390;2023-04-24T12:54:57;4.97;;;3.33;;
77324;SDS011;66387;53.440;10.390;2023-04-24T12:59:49;5.13;;;3.58;;
77324;SDS011;66387;53.440;10.390;2023-04-24T13:02:15;3.63;;;2.95;;
77324;SDS011;66387;53.440;10.390;2023-04-24T13:04:44;4.18;;;3.47;;
77324;SDS011;66387;53.440;10.390;2023-04-24T13:07:12;4.20;;;3.53;;
77324;SDS011;66387;53.440;10.390;2023-04-24T13:09:38;3.53;;;3.20;;
77324;SDS011;66387;53.440;10.390;2023-04-24T13:12:04;4.15;;;3.05;;
77324;SDS011;66387;53.440;10.390;2023-04-24T13:14:30;3.60;;;2.88;;
77324;SDS011;66387;53.440;10.390;2023-04-24T13:16:56;3.92;;;2.92;;
77324;SDS011;66387;53.440;10.390;2023-04-24T13:19:21;5.10;;;3.83;;
77324;SDS011;66387;53.440;10.390;2023-04-24T13:21:49;4.68;;;3.92;;
77324;SDS011;66387;53.440;10.390;2023-04-24T13:24:15;3.90;;;3.40;;
77324;SDS011;66387;53.440;10.390;2023-04-24T13:26:40;3.80;;;3.00;;
77324;SDS011;66387;53.440;10.390;2023-04-24T13:29:06;2.55;;;2.10;;
77324;SDS011;66387;53.440;10.390;2023-04-24T13:31:31;3.47;;;2.23;;
77324;SDS011;66387;53.440;10.390;2023-04-24T13:33:56;2.45;;;2.25;;
77324;SDS011;66387;53.440;10.390;2023-04-24T13:36:22;2.73;;;2.40;;
77324;SDS011;66387;53.440;10.390;2023-04-24T13:38:47;4.87;;;3.03;;
77324;SDS011;66387;53.440;10.390;2023-04-24T13:41:12;3.93;;;2.77;;
77324;SDS011;66387;53.440;10.390;2023-04-24T13:43:37;3.40;;;2.90;;
77324;SDS011;66387;53.440;10.390;2023-04-24T13:46:03;3.30;;;2.87;;
77324;SDS011;66387;53.440;10.390;2023-04-24T13:48:29;4.18;;;3.85;;
77324;SDS011;66387;53.440;10.390;2023-04-24T13:50:54;3.53;;;2.80;;
77324;SDS011;66387;53.440;10.390;2023-04-24T13:53:20;3.78;;;3.45;;
77324;SDS011;66387;53.440;10.390;2023-04-24T13:55:45;3.87;;;3.47;;
77324;SDS011;66387;53.440;10.390;2023-04-24T13:58:10;3.60;;;2.83;;
77324;SDS011;66387;53.440;10.390;2023-04-24T14:00:36;2.90;;;2.60;;
77324;SDS011;66387;53.440;10.390;2023-04-24T14:03:01;4.53;;;2.70;;
77324;SDS011;66387;53.440;10.390;2023-04-24T14:05:26;3.40;;;2.60;;
77324;SDS011;66387;53.440;10.390;2023-04-24T14:07:52;3.67;;;2.88;;
77324;SDS011;66387;53.440;10.390;2023-04-24T14:10:17;5.35;;;2.97;;
77324;SDS011;66387;53.440;10.390;2023-04-24T14:12:42;3.17;;;2.45;;
77324;SDS011;66387;53.440;10.390;2023-04-24T14:15:08;3.17;;;2.47;;
77324;SDS011;66387;53.440;10.390;2023-04-24T14:17:34;3.80;;;2.35;;
77324;SDS011;66387;53.440;10.390;2023-04-24T14:19:59;3.67;;;2.25;;
77324;SDS011;66387;53.440;10.390;2023-04-24T14:22:25;2.42;;;2.22;;
77324;SDS011;66387;53.440;10.390;2023-04-24T14:24:50;2.70;;;2.13;;
77324;SDS011;66387;53.440;10.390;2023-04-24T14:27:16;2.80;;;2.30;;
77324;SDS011;66387;53.440;10.390;2023-04-24T14:29:41;3.15;;;2.47;;
77324;SDS011;66387;53.440;10.390;2023-04-24T14:32:06;3.43;;;2.63;;
77324;SDS011;66387;53.440;10.390;2023-04-24T14:34:33;4.38;;;3.42;;
77324;SDS011;66387;53.440;10.390;2023-04-24T14:36:59;3.33;;;2.63;;
77324;SDS011;66387;53.440;10.390;2023-04-24T14:39:24;3.42;;;2.85;;
77324;SDS011;66387;53.440;10.390;2023-04-24T14:41:49;2.90;;;2.40;;
77324;SDS011;66387;53.440;10.390;2023-04-24T14:44:15;3.00;;;2.30;;
77324;SDS011;66387;53.440;10.390;2023-04-24T14:46:41;2.80;;;2.10;;
77324;SDS011;66387;53.440;10.390;2023-04-24T14:49:06;2.45;;;2.25;;
77324;SDS011;66387;53.440;10.390;2023-04-24T14:53:59;2.80;;;2.15;;